createdAt,value
2018-12-18T00:01:30.433Z,13.00
2018-12-18T00:03:57.858Z,14.23
2018-12-18T00:06:25.269Z,14.93
2018-12-18T00:08:52.769Z,7.20
2018-12-18T00:11:20.218Z,10.80
2018-12-18T00:13:47.610Z,13.00
2018-12-18T00:16:14.994Z,7.47
2018-12-18T00:18:42.434Z,9.23
2018-12-18T00:21:09.839Z,10.33
2018-12-18T00:23:37.259Z,10.77
2018-12-18T00:26:04.650Z,8.67
2018-12-18T00:28:32.058Z,9.60
2018-12-18T00:30:59.471Z,6.77
2018-12-18T00:33:26.851Z,10.17
2018-12-18T00:35:54.264Z,9.83
2018-12-18T00:38:21.653Z,9.83
2018-12-18T00:40:49.055Z,10.33
2018-12-18T00:43:16.481Z,9.77
2018-12-18T00:45:44.038Z,8.00
2018-12-18T00:48:11.464Z,9.23
2018-12-18T00:50:38.889Z,4.90
2018-12-18T00:53:06.286Z,7.53
2018-12-18T00:55:33.705Z,6.03
2018-12-18T00:58:01.187Z,6.63
2018-12-18T01:00:28.644Z,7.97
2018-12-18T01:02:56.180Z,8.63
2018-12-18T01:05:23.567Z,6.37
2018-12-18T01:07:53.401Z,9.10
2018-12-18T01:10:20.379Z,6.03
2018-12-18T01:12:47.791Z,9.10
2018-12-18T01:15:15.154Z,8.70
2018-12-18T01:17:42.545Z,6.00
2018-12-18T01:20:09.931Z,10.17
2018-12-18T01:22:37.323Z,8.77
2018-12-18T01:25:04.744Z,10.57
2018-12-18T01:27:32.138Z,8.87
2018-12-18T01:29:59.611Z,8.27
2018-12-18T01:32:26.999Z,10.53
2018-12-18T01:34:54.419Z,8.73
2018-12-18T01:37:21.783Z,9.80
2018-12-18T01:39:49.171Z,7.63
2018-12-18T01:42:16.568Z,5.13
2018-12-18T01:44:43.960Z,10.53
2018-12-18T01:47:11.354Z,10.57
2018-12-18T01:49:38.739Z,7.97
2018-12-18T01:52:06.127Z,11.10
2018-12-18T01:54:33.519Z,10.37
2018-12-18T01:57:00.945Z,9.13
2018-12-18T01:59:28.332Z,8.20
2018-12-18T02:01:55.731Z,10.43
2018-12-18T02:04:23.170Z,8.53
2018-12-18T02:06:50.592Z,10.57
2018-12-18T02:09:18.053Z,9.27
2018-12-18T02:11:45.434Z,6.33
2018-12-18T02:14:12.807Z,7.80
2018-12-18T02:16:40.162Z,7.53
2018-12-18T02:19:07.548Z,7.17
2018-12-18T02:21:34.936Z,9.07
2018-12-18T02:24:02.325Z,6.00
2018-12-18T02:26:29.702Z,8.07
2018-12-18T02:28:57.206Z,9.03
2018-12-18T02:31:24.619Z,8.43
2018-12-18T02:33:52.004Z,7.00
2018-12-18T02:36:19.439Z,7.77
2018-12-18T02:38:46.968Z,7.87
2018-12-18T02:41:14.380Z,7.40
2018-12-18T02:43:41.786Z,5.30
2018-12-18T02:46:09.176Z,7.27
2018-12-18T02:48:36.601Z,7.13
2018-12-18T02:51:03.979Z,8.33
2018-12-18T02:53:31.406Z,6.43
2018-12-18T02:55:58.772Z,7.07
2018-12-18T02:58:26.173Z,7.43
2018-12-18T03:00:53.570Z,6.73
2018-12-18T03:03:20.981Z,7.57
2018-12-18T03:05:48.377Z,6.37
2018-12-18T03:08:15.750Z,8.03
2018-12-18T03:10:43.210Z,7.67
2018-12-18T03:13:10.596Z,7.50
2018-12-18T03:15:38.007Z,7.67
2018-12-18T03:18:05.407Z,7.30
2018-12-18T03:20:32.842Z,6.57
2018-12-18T03:23:00.279Z,7.77
2018-12-18T03:25:27.684Z,5.83
2018-12-18T03:27:55.089Z,6.70
2018-12-18T03:30:22.495Z,8.07
2018-12-18T03:32:52.600Z,6.97
2018-12-18T03:35:20.012Z,6.73
2018-12-18T03:37:47.412Z,6.93
2018-12-18T03:40:14.979Z,6.43
2018-12-18T03:42:42.416Z,7.07
2018-12-18T03:45:09.828Z,7.10
2018-12-18T03:47:37.223Z,6.60
2018-12-18T03:50:04.988Z,6.77
2018-12-18T03:52:32.455Z,3.90
2018-12-18T03:54:59.851Z,6.23
2018-12-18T03:57:27.218Z,6.87
2018-12-18T03:59:54.638Z,6.30
2018-12-18T04:02:22.082Z,6.17
2018-12-18T04:04:49.538Z,6.13
2018-12-18T04:07:16.949Z,5.60
2018-12-18T04:09:44.347Z,7.03
2018-12-18T04:12:16.330Z,6.23
2018-12-18T04:14:43.737Z,5.73
2018-12-18T04:17:11.124Z,5.17
2018-12-18T04:19:38.548Z,5.17
2018-12-18T04:22:05.944Z,5.43
2018-12-18T04:24:33.329Z,5.97
2018-12-18T04:27:00.723Z,7.23
2018-12-18T04:29:28.106Z,6.07
2018-12-18T04:31:55.487Z,5.60
2018-12-18T04:34:22.911Z,7.33
2018-12-18T04:36:50.314Z,6.50
2018-12-18T04:39:17.710Z,6.53
2018-12-18T04:41:45.105Z,5.77
2018-12-18T04:44:12.494Z,7.47
2018-12-18T04:46:39.885Z,8.20
2018-12-18T04:49:07.275Z,6.60
2018-12-18T04:51:34.665Z,6.97
2018-12-18T04:54:02.051Z,5.50
2018-12-18T04:56:29.449Z,6.43
2018-12-18T04:58:56.889Z,7.50
2018-12-18T05:01:24.264Z,6.00
2018-12-18T05:03:51.647Z,7.83
2018-12-18T05:06:19.027Z,6.77
2018-12-18T05:08:46.413Z,6.50
2018-12-18T05:11:13.811Z,9.23
2018-12-18T05:13:41.236Z,7.20
2018-12-18T05:16:08.638Z,6.80
2018-12-18T05:18:36.365Z,6.17
2018-12-18T05:21:03.745Z,5.33
2018-12-18T05:23:31.123Z,5.53
2018-12-18T05:25:58.529Z,4.03
2018-12-18T05:28:25.913Z,9.03
2018-12-18T05:30:53.296Z,6.67
2018-12-18T05:33:20.706Z,7.33
2018-12-18T05:35:48.184Z,10.00
2018-12-18T05:38:15.594Z,7.53
2018-12-18T05:40:42.967Z,7.20
2018-12-18T05:43:10.383Z,5.63
2018-12-18T05:45:37.770Z,6.10
2018-12-18T05:48:05.166Z,5.17
2018-12-18T05:50:32.576Z,5.93
2018-12-18T05:52:59.978Z,5.87
2018-12-18T05:55:27.386Z,6.00
2018-12-18T05:57:54.772Z,6.10
2018-12-18T06:00:22.217Z,5.17
2018-12-18T06:02:49.639Z,5.40
2018-12-18T06:05:17.049Z,4.27
2018-12-18T06:07:44.421Z,4.70
2018-12-18T06:10:11.802Z,3.97
2018-12-18T06:12:39.214Z,4.57
2018-12-18T06:15:06.623Z,4.63
2018-12-18T06:17:34.009Z,4.37
2018-12-18T06:20:01.442Z,4.63
2018-12-18T06:22:28.811Z,4.47
2018-12-18T06:24:56.261Z,5.27
2018-12-18T06:27:23.704Z,4.73
2018-12-18T06:29:51.143Z,4.57
2018-12-18T06:32:18.576Z,3.80
2018-12-18T06:34:45.991Z,4.90
2018-12-18T06:37:13.399Z,4.73
2018-12-18T06:39:40.776Z,5.20
2018-12-18T06:42:08.181Z,3.97
2018-12-18T06:44:35.570Z,5.67
2018-12-18T06:47:03.017Z,5.07
2018-12-18T06:49:30.476Z,4.00
2018-12-18T06:51:57.968Z,4.50
2018-12-18T06:54:25.358Z,5.30
2018-12-18T06:56:52.819Z,5.10
2018-12-18T06:59:20.232Z,5.23
2018-12-18T07:01:47.640Z,4.70
2018-12-18T07:04:15.063Z,5.43
2018-12-18T07:06:42.482Z,6.13
2018-12-18T07:09:10.755Z,4.93
2018-12-18T07:11:38.287Z,4.07
2018-12-18T07:14:05.696Z,4.83
2018-12-18T07:16:33.666Z,4.37
2018-12-18T07:19:01.172Z,3.27
2018-12-18T07:21:28.559Z,4.47
2018-12-18T07:23:55.993Z,5.70
2018-12-18T07:26:23.418Z,4.13
2018-12-18T07:28:50.846Z,5.07
2018-12-18T07:31:18.247Z,3.37
2018-12-18T07:33:45.738Z,4.53
2018-12-18T07:36:13.227Z,3.97
2018-12-18T07:38:40.627Z,4.80
2018-12-18T07:41:08.016Z,3.00
2018-12-18T07:43:35.463Z,4.07
2018-12-18T07:46:02.990Z,7.83
2018-12-18T07:48:30.382Z,4.67
2018-12-18T07:50:57.956Z,3.53
2018-12-18T07:53:25.402Z,4.30
2018-12-18T07:55:52.809Z,4.07
2018-12-18T07:58:20.214Z,4.77
2018-12-18T08:00:47.664Z,4.33
2018-12-18T08:03:15.101Z,5.37
2018-12-18T08:05:42.511Z,7.50
2018-12-18T08:08:09.910Z,3.07
2018-12-18T08:10:37.321Z,6.90
2018-12-18T08:13:04.710Z,5.37
2018-12-18T08:15:32.257Z,3.80
2018-12-18T08:17:59.681Z,3.47
2018-12-18T08:20:27.142Z,4.53
2018-12-18T08:22:54.591Z,4.57
2018-12-18T08:25:22.027Z,5.13
2018-12-18T08:27:49.425Z,4.63
2018-12-18T08:30:16.820Z,11.27
2018-12-18T08:32:44.259Z,7.90
2018-12-18T08:35:11.738Z,4.57
2018-12-18T08:37:39.324Z,5.93
2018-12-18T08:40:07.219Z,4.50
2018-12-18T08:42:34.669Z,5.33
2018-12-18T08:45:02.066Z,5.27
2018-12-18T08:47:29.499Z,5.43
2018-12-18T08:49:56.884Z,16.50
2018-12-18T08:52:24.282Z,7.47
2018-12-18T08:54:51.696Z,6.97
2018-12-18T08:57:19.163Z,4.13
2018-12-18T08:59:46.588Z,5.13
2018-12-18T09:02:13.976Z,4.30
2018-12-18T09:04:41.366Z,5.00
2018-12-18T09:07:08.950Z,3.07
2018-12-18T09:09:36.380Z,3.77
2018-12-18T09:12:03.848Z,4.37
2018-12-18T09:14:31.239Z,4.20
2018-12-18T09:17:02.497Z,4.97
2018-12-18T09:19:30.206Z,4.67
2018-12-18T09:21:57.937Z,4.27
2018-12-18T09:24:25.407Z,4.97
2018-12-18T09:26:52.791Z,4.50
2018-12-18T09:29:20.213Z,4.57
2018-12-18T09:31:47.687Z,6.13
2018-12-18T09:34:15.083Z,5.00
2018-12-18T09:36:42.509Z,4.00
2018-12-18T09:39:15.747Z,4.30
2018-12-18T09:41:46.286Z,3.07
2018-12-18T09:44:16.705Z,3.70
2018-12-18T09:46:44.217Z,3.97
2018-12-18T09:49:11.622Z,3.27
2018-12-18T09:51:39.171Z,3.80
2018-12-18T09:54:06.659Z,3.83
2018-12-18T09:56:39.898Z,3.27
2018-12-18T09:59:07.334Z,4.27
2018-12-18T10:01:34.739Z,1.87
2018-12-18T10:04:02.170Z,3.93
2018-12-18T10:06:29.558Z,2.93
2018-12-18T10:08:57.009Z,3.40
2018-12-18T10:11:24.538Z,3.10
2018-12-18T10:13:51.950Z,2.97
2018-12-18T10:16:19.400Z,2.70
2018-12-18T10:18:46.792Z,2.77
2018-12-18T10:21:14.207Z,2.80
2018-12-18T10:23:41.631Z,3.30
2018-12-18T10:26:09.097Z,4.17
2018-12-18T10:28:36.505Z,4.00
2018-12-18T10:31:03.902Z,2.67
2018-12-18T10:33:31.348Z,2.87
2018-12-18T10:36:03.002Z,1.60
2018-12-18T10:38:28.432Z,2.60
2018-12-18T10:40:55.877Z,5.13
2018-12-18T10:43:23.286Z,3.37
2018-12-18T10:45:50.693Z,1.63
2018-12-18T10:48:18.113Z,2.73
2018-12-18T10:50:45.518Z,2.50
2018-12-18T10:53:12.954Z,3.07
2018-12-18T10:55:40.357Z,2.27
2018-12-18T10:58:07.759Z,2.77
2018-12-18T11:00:41.748Z,2.67
2018-12-18T11:03:09.162Z,2.07
2018-12-18T11:05:36.614Z,2.43
2018-12-18T11:08:04.053Z,2.97
2018-12-18T11:10:31.484Z,2.03
2018-12-18T11:13:04.540Z,2.83
2018-12-18T11:15:31.974Z,2.93
2018-12-18T11:17:59.695Z,5.27
2018-12-18T11:20:27.125Z,2.33
2018-12-18T11:22:54.551Z,2.87
2018-12-18T11:25:22.108Z,2.63
2018-12-18T11:27:49.533Z,2.37
2018-12-18T11:30:16.937Z,2.67
2018-12-18T11:32:44.486Z,2.90
2018-12-18T11:35:12.111Z,1.60
2018-12-18T11:37:39.509Z,2.73
2018-12-18T11:40:07.385Z,2.10
2018-12-18T11:42:34.853Z,2.90
2018-12-18T11:45:02.364Z,2.30
2018-12-18T11:47:29.753Z,2.83
2018-12-18T11:49:57.197Z,2.07
2018-12-18T11:52:24.581Z,2.10
2018-12-18T11:54:52.021Z,1.87
2018-12-18T11:57:50.237Z,2.43
2018-12-18T12:00:17.708Z,2.63
2018-12-18T12:02:45.120Z,2.10
2018-12-18T12:05:12.549Z,5.17
2018-12-18T12:07:39.935Z,2.10
2018-12-18T12:10:07.420Z,1.67
2018-12-18T12:12:34.929Z,3.20
2018-12-18T12:15:02.674Z,2.10
2018-12-18T12:17:30.277Z,2.30
2018-12-18T12:19:57.740Z,2.53
2018-12-18T12:22:25.147Z,2.13
2018-12-18T12:24:52.586Z,2.20
2018-12-18T12:27:25.667Z,2.20
2018-12-18T12:29:53.098Z,2.50
2018-12-18T12:32:20.566Z,1.80
2018-12-18T12:34:48.003Z,1.63
2018-12-18T12:37:15.387Z,2.20
2018-12-18T12:39:42.805Z,2.43
2018-12-18T12:42:12.124Z,2.23
2018-12-18T12:44:39.551Z,2.27
2018-12-18T12:47:08.635Z,1.20
2018-12-18T12:49:41.781Z,2.03
2018-12-18T12:52:09.205Z,6.13
2018-12-18T12:54:36.586Z,4.83
2018-12-18T12:57:04.013Z,2.13
2018-12-18T12:59:31.424Z,1.50
2018-12-18T13:01:58.910Z,4.03
2018-12-18T13:04:26.305Z,1.40
2018-12-18T13:06:53.768Z,1.70
2018-12-18T13:09:21.187Z,2.80
2018-12-18T13:11:48.601Z,2.67
2018-12-18T13:14:16.033Z,1.57
2018-12-18T13:16:43.463Z,10.93
2018-12-18T13:19:10.909Z,3.20
2018-12-18T13:21:38.309Z,1.87
2018-12-18T13:24:05.735Z,1.67
2018-12-18T13:26:33.740Z,1.73
2018-12-18T13:29:01.143Z,2.53
2018-12-18T13:31:28.554Z,1.90
2018-12-18T13:33:55.948Z,1.50
2018-12-18T13:36:23.360Z,3.13
2018-12-18T13:39:13.177Z,2.03
2018-12-18T13:41:40.622Z,2.20
2018-12-18T13:44:08.073Z,1.20
2018-12-18T13:46:35.571Z,1.97
2018-12-18T13:49:02.992Z,1.67
2018-12-18T13:51:30.497Z,1.10
2018-12-18T13:53:57.973Z,1.17
2018-12-18T13:56:26.363Z,0.63
2018-12-18T13:58:53.811Z,1.37
2018-12-18T14:01:21.258Z,1.30
2018-12-18T14:03:48.645Z,1.60
2018-12-18T14:06:16.147Z,1.67
2018-12-18T14:08:45.347Z,1.90
2018-12-18T14:11:12.955Z,3.93
2018-12-18T14:13:41.516Z,2.60
2018-12-18T14:16:08.923Z,2.50
2018-12-18T14:18:36.471Z,3.03
2018-12-18T14:21:04.546Z,3.53
2018-12-18T14:23:31.963Z,2.73
2018-12-18T14:26:00.129Z,2.43
2018-12-18T14:28:27.836Z,2.80
2018-12-18T14:30:55.265Z,2.20
2018-12-18T14:33:23.754Z,2.67
2018-12-18T14:35:51.324Z,2.27
2018-12-18T14:38:18.722Z,1.97
2018-12-18T14:40:46.311Z,1.93
2018-12-18T14:43:13.783Z,2.47
2018-12-18T14:45:41.240Z,2.17
2018-12-18T14:48:08.646Z,2.40
2018-12-18T14:50:36.164Z,2.13
2018-12-18T14:53:03.648Z,1.77
2018-12-18T14:55:31.053Z,1.60
2018-12-18T14:57:58.791Z,1.47
2018-12-18T15:00:26.313Z,2.00
2018-12-18T15:02:53.784Z,2.40
2018-12-18T15:05:21.261Z,2.20
2018-12-18T15:07:48.688Z,1.60
2018-12-18T15:10:16.110Z,1.70
2018-12-18T15:12:48.507Z,1.57
2018-12-18T15:15:15.972Z,1.90
2018-12-18T15:17:43.411Z,2.40
2018-12-18T15:20:10.831Z,1.33
2018-12-18T15:22:38.233Z,1.60
2018-12-18T15:25:05.808Z,1.10
2018-12-18T15:27:33.231Z,1.83
2018-12-18T15:30:00.667Z,1.60
2018-12-18T15:32:28.329Z,1.93
2018-12-18T15:34:55.784Z,2.13
2018-12-18T15:37:23.188Z,2.10
2018-12-18T15:39:50.662Z,1.83
2018-12-18T15:42:18.211Z,2.57
2018-12-18T15:44:45.616Z,1.87
2018-12-18T15:47:13.038Z,1.90
2018-12-18T15:49:40.432Z,1.33
2018-12-18T15:52:07.857Z,1.43
2018-12-18T15:54:35.402Z,1.27
2018-12-18T15:57:02.785Z,2.17
2018-12-18T15:59:30.163Z,1.27
2018-12-18T16:01:57.615Z,2.60
2018-12-18T16:04:25.004Z,2.13
2018-12-18T16:06:52.425Z,1.03
2018-12-18T16:09:19.856Z,2.30
2018-12-18T16:11:47.278Z,1.63
2018-12-18T16:14:14.720Z,1.80
2018-12-18T16:16:42.154Z,1.07
2018-12-18T16:19:09.706Z,1.57
2018-12-18T16:21:37.379Z,1.90
2018-12-18T16:24:04.789Z,2.20
2018-12-18T16:26:32.239Z,1.77
2018-12-18T16:28:59.700Z,2.10
2018-12-18T16:31:27.122Z,1.63
2018-12-18T16:33:54.539Z,1.90
2018-12-18T16:36:22.077Z,1.83
2018-12-18T16:38:49.476Z,1.73
2018-12-18T16:41:16.950Z,1.50
2018-12-18T16:43:44.446Z,1.43
2018-12-18T16:46:11.861Z,2.20
2018-12-18T16:48:39.304Z,37.00
2018-12-18T16:51:06.766Z,3.77
2018-12-18T16:53:34.191Z,3.33
2018-12-18T16:56:02.276Z,3.03
2018-12-18T16:58:29.825Z,1.80
2018-12-18T17:01:11.115Z,2.30
2018-12-18T17:03:38.562Z,3.57
2018-12-18T17:06:06.018Z,2.27
2018-12-18T17:08:33.457Z,1.73
2018-12-18T17:11:00.946Z,2.17
2018-12-18T17:13:29.705Z,2.00
2018-12-18T17:15:57.549Z,2.00
2018-12-18T17:18:24.993Z,2.17
2018-12-18T17:20:52.441Z,2.03
2018-12-18T17:23:20.514Z,2.90
2018-12-18T17:25:47.940Z,2.23
2018-12-18T17:28:15.417Z,1.93
2018-12-18T17:30:42.848Z,2.77
2018-12-18T17:33:10.263Z,2.43
2018-12-18T17:35:38.629Z,1.90
2018-12-18T17:38:06.057Z,1.97
2018-12-18T17:40:33.783Z,2.50
2018-12-18T17:43:01.215Z,2.33
2018-12-18T17:45:28.613Z,1.47
2018-12-18T17:47:56.011Z,1.70
2018-12-18T17:50:23.423Z,2.67
2018-12-18T17:52:50.855Z,2.73
2018-12-18T17:55:18.275Z,2.50
2018-12-18T17:57:45.729Z,2.83
2018-12-18T18:00:13.134Z,2.43
2018-12-18T18:02:40.549Z,2.80
2018-12-18T18:05:07.948Z,2.70
2018-12-18T18:07:35.397Z,1.90
2018-12-18T18:10:03.039Z,2.40
2018-12-18T18:12:30.443Z,1.43
2018-12-18T18:14:57.922Z,2.77
2018-12-18T18:17:25.358Z,2.10
2018-12-18T18:19:52.796Z,1.37
2018-12-18T18:22:20.235Z,1.30
2018-12-18T18:24:47.681Z,1.80
2018-12-18T18:27:15.128Z,2.30
2018-12-18T18:29:42.587Z,1.60
2018-12-18T18:32:10.038Z,3.00
2018-12-18T18:34:37.515Z,2.77
2018-12-18T18:37:04.998Z,1.90
2018-12-18T18:39:32.434Z,1.93
2018-12-18T18:42:00.095Z,2.93
2018-12-18T18:44:27.570Z,1.83
2018-12-18T18:46:55.199Z,2.47
2018-12-18T18:49:22.707Z,2.27
2018-12-18T18:51:50.137Z,2.33
2018-12-18T18:54:18.634Z,2.33
2018-12-18T18:56:46.507Z,2.50
2018-12-18T18:59:14.546Z,2.40
2018-12-18T19:01:43.181Z,1.90
2018-12-18T19:04:10.635Z,2.70
2018-12-18T19:06:38.490Z,2.03
2018-12-18T19:09:07.008Z,2.60
2018-12-18T19:11:34.679Z,2.23
2018-12-18T19:14:02.294Z,3.50
2018-12-18T19:16:30.108Z,2.20
2018-12-18T19:18:57.545Z,1.70
2018-12-18T19:21:24.992Z,3.33
2018-12-18T19:23:52.420Z,2.20
2018-12-18T19:26:19.971Z,2.40
2018-12-18T19:28:50.365Z,3.30
2018-12-18T19:31:16.989Z,2.40
2018-12-18T19:33:44.462Z,3.03
2018-12-18T19:36:11.952Z,1.57
2018-12-18T19:38:39.387Z,2.00
2018-12-18T19:41:06.821Z,2.47
2018-12-18T19:43:34.257Z,1.87
2018-12-18T19:46:01.828Z,2.90
2018-12-18T19:48:29.397Z,2.33
2018-12-18T19:50:56.836Z,2.43
2018-12-18T19:53:24.384Z,1.87
2018-12-18T19:55:51.861Z,3.30
2018-12-18T19:58:19.729Z,2.43
2018-12-18T20:00:47.229Z,2.03
2018-12-18T20:03:14.814Z,1.70
2018-12-18T20:05:42.318Z,1.77
2018-12-18T20:08:10.237Z,2.50
2018-12-18T20:10:37.915Z,2.57
2018-12-18T20:13:05.456Z,2.87
2018-12-18T20:15:33.170Z,2.80
2018-12-18T20:18:00.651Z,2.60
2018-12-18T20:20:28.105Z,2.67
2018-12-18T20:22:55.536Z,2.60
2018-12-18T20:25:23.031Z,1.90
2018-12-18T20:27:50.926Z,1.87
2018-12-18T20:30:19.626Z,2.60
2018-12-18T20:32:47.047Z,1.87
2018-12-18T20:35:14.522Z,1.80
2018-12-18T20:37:42.305Z,2.50
2018-12-18T20:40:10.027Z,2.80
2018-12-18T20:42:37.497Z,3.10
2018-12-18T20:45:05.961Z,1.80
2018-12-18T20:47:33.451Z,2.40
2018-12-18T20:50:00.890Z,2.73
2018-12-18T20:52:28.437Z,2.60
2018-12-18T20:54:55.948Z,1.53
2018-12-18T20:57:23.370Z,2.50
2018-12-18T20:59:50.823Z,2.23
2018-12-18T21:02:18.273Z,2.40
2018-12-18T21:04:45.676Z,2.20
2018-12-18T21:07:13.059Z,2.20
2018-12-18T21:09:40.528Z,2.20
2018-12-18T21:12:07.940Z,2.90
2018-12-18T21:14:35.372Z,2.47
2018-12-18T21:17:02.876Z,2.80
2018-12-18T21:19:35.952Z,2.53
2018-12-18T21:22:05.427Z,1.03
2018-12-18T21:24:32.906Z,2.33
2018-12-18T21:27:00.402Z,2.77
2018-12-18T21:29:27.943Z,1.90
2018-12-18T21:31:55.385Z,2.30
2018-12-18T21:34:22.811Z,1.97
2018-12-18T21:36:50.273Z,2.50
2018-12-18T21:39:17.768Z,2.50
2018-12-18T21:41:45.247Z,2.47
2018-12-18T21:44:12.768Z,2.30
2018-12-18T21:46:40.320Z,1.57
2018-12-18T21:49:07.733Z,1.80
2018-12-18T21:51:35.132Z,1.97
2018-12-18T21:54:02.585Z,2.50
2018-12-18T21:56:30.111Z,1.57
2018-12-18T21:58:57.583Z,2.20
2018-12-18T22:01:25.252Z,2.50
2018-12-18T22:03:52.663Z,2.40
2018-12-18T22:06:20.104Z,1.87
2018-12-18T22:08:47.584Z,2.47
2018-12-18T22:11:15.027Z,1.83
2018-12-18T22:13:42.463Z,2.40
2018-12-18T22:16:09.912Z,2.17
2018-12-18T22:18:37.369Z,2.70
2018-12-18T22:21:04.827Z,2.50
2018-12-18T22:23:32.294Z,2.13
2018-12-18T22:25:59.804Z,1.87
2018-12-18T22:28:27.183Z,2.30
2018-12-18T22:30:54.586Z,2.00
2018-12-18T22:33:22.042Z,2.47
2018-12-18T22:35:49.493Z,1.80
2018-12-18T22:38:16.893Z,2.13
2018-12-18T22:40:44.331Z,1.70
2018-12-18T22:43:11.728Z,2.03
2018-12-18T22:45:39.130Z,1.63
2018-12-18T22:48:06.529Z,2.20
2018-12-18T22:50:33.976Z,2.50
2018-12-18T22:53:01.466Z,2.40
2018-12-18T22:55:28.889Z,2.73
2018-12-18T22:57:56.407Z,2.10
2018-12-18T23:00:29.599Z,2.10
2018-12-18T23:02:57.054Z,2.07
2018-12-18T23:05:24.496Z,2.60
2018-12-18T23:07:51.952Z,2.27
2018-12-18T23:10:19.390Z,2.10
2018-12-18T23:12:46.826Z,1.47
2018-12-18T23:15:14.247Z,1.60
2018-12-18T23:17:41.663Z,1.40
2018-12-18T23:20:09.067Z,2.10
2018-12-18T23:22:36.486Z,1.90
2018-12-18T23:25:04.058Z,1.70
2018-12-18T23:27:31.470Z,1.77
2018-12-18T23:29:58.910Z,1.60
2018-12-18T23:32:26.347Z,1.90
2018-12-18T23:34:53.945Z,1.90
2018-12-18T23:37:21.348Z,2.10
2018-12-18T23:39:48.856Z,2.10
2018-12-18T23:42:16.255Z,1.70
2018-12-18T23:44:43.700Z,2.20
2018-12-18T23:47:11.121Z,1.33
2018-12-18T23:49:38.625Z,1.83
2018-12-18T23:52:06.077Z,2.43
2018-12-18T23:54:33.496Z,2.27
2018-12-18T23:57:00.918Z,1.93
2018-12-18T23:59:28.383Z,2.27
